Terminal Aerodrome Forecast
Issued by NWS Wilmington, NC

Current Version | Previous Version | Text Only | Print | Product List | Glossary On
Versions: 1 2 3 4 5 6 7 8 9 10 11 12 13 14
662
FTUS42 KILM 140520
TAFMYR
TAF
KMYR 140520Z 1406/1506 02006KT P6SM SKC
     FM141500 04011KT P6SM SCT120 SCT250
     FM142000 08011KT P6SM SCT050 BKN200
     FM150400 07009KT P6SM BKN050 OVC100
      AMD LTD TO CLD VIS AND WIND TIL 141100=

USA.gov is the U.S. government's official web portal to all federal, state and local government web resources and services.